Terminal Aerodrome Forecast
Issued by NWS

Home | Current Version | Previous Version | Text Only | Print | Product List | Glossary On
Versions: 1 2 3 4 5 6 7 8 9 10 11 12
000
FTUS44 KCRP 271700
TAFLRD
TAF
KLRD 271730Z 2718/2818 09008KT P6SM SKC
     FM280300 13007KT P6SM SKC
     FM281000 13004KT 5SM BR SCT010
     FM281500 17007KT P6SM FEW030=

USA.gov is the U.S. government's official web portal to all federal, state and local government web resources and services.